Time;durP1;ratioP1;P1;durP2;ratioP2;P2;SDS_P1;SDS_P2;PMS_P1;PMS_P2;Temp;Humidity;BMP_temperature;BMP_pressure;BME280_temperature;BME280_humidity;BME280_pressure;Samples;Min_cycle;Max_cycle;Signal;HPM_P1;HPM_P2
2021/08/25 00:01:32;;;;;;;0.40;0.30;;;14.80;99.90;;;;;;5034013;28;20406;-75
2021/08/25 00:03:58;;;;;;;0.40;0.20;;;14.60;99.90;;;;;;5033969;28;20383;-76
2021/08/25 00:06:24;;;;;;;0.40;0.20;;;14.60;99.90;;;;;;5032870;28;20444;-76
2021/08/25 00:08:49;;;;;;;0.40;0.20;;;14.60;99.90;;;;;;5033562;28;20750;-75
2021/08/25 00:11:15;;;;;;;0.40;0.20;;;14.60;99.90;;;;;;5014977;28;20411;-76
2021/08/25 00:13:41;;;;;;;0.40;0.20;;;14.50;99.90;;;;;;5033584;28;20391;-75
2021/08/25 00:16:06;;;;;;;0.40;0.20;;;14.50;99.90;;;;;;5032930;28;20445;-75
2021/08/25 00:18:32;;;;;;;0.40;0.20;;;14.40;99.90;;;;;;5033337;28;20386;-75
2021/08/25 00:20:58;;;;;;;0.40;0.20;;;14.40;99.90;;;;;;5033824;28;20768;-75
2021/08/25 00:23:24;;;;;;;0.40;0.20;;;14.40;99.90;;;;;;5032185;28;20446;-75
2021/08/25 00:25:53;;;;;;;0.40;0.20;;;14.50;99.90;;;;;;5033277;28;20434;-75
2021/08/25 00:28:20;;;;;;;0.40;0.30;;;14.70;99.90;;;;;;5031759;28;21191;-76
2021/08/25 00:30:46;;;;;;;0.40;0.30;;;14.40;99.90;;;;;;5033075;28;20406;-75
2021/08/25 00:33:11;;;;;;;0.40;0.20;;;14.20;99.90;;;;;;5032889;28;20398;-75
2021/08/25 00:35:37;;;;;;;0.40;0.20;;;14.30;99.90;;;;;;5032969;28;20426;-75
2021/08/25 00:38:03;;;;;;;0.60;0.50;;;14.30;99.90;;;;;;5032890;28;20914;-75
2021/08/25 00:40:29;;;;;;;0.40;0.30;;;14.30;99.90;;;;;;5032606;28;20430;-75
2021/08/25 00:42:55;;;;;;;0.40;0.20;;;14.20;99.90;;;;;;5033292;28;20422;-75
2021/08/25 00:45:20;;;;;;;0.40;0.20;;;14.30;99.90;;;;;;5014887;28;20404;-75
2021/08/25 00:47:50;;;;;;;0.40;0.20;;;14.30;99.90;;;;;;5032583;28;20391;-75
2021/08/25 00:50:16;;;;;;;0.40;0.30;;;14.20;99.90;;;;;;5032239;28;20387;-75
2021/08/25 00:52:43;;;;;;;0.40;0.20;;;14.30;99.90;;;;;;5032952;28;20779;-75
2021/08/25 00:55:14;;;;;;;0.40;0.20;;;14.40;99.90;;;;;;5031015;28;20478;-75
2021/08/25 00:57:42;;;;;;;0.40;0.30;;;14.70;99.90;;;;;;5032851;28;20387;-75
2021/08/25 01:00:10;;;;;;;0.40;0.30;;;14.70;99.90;;;;;;5031748;28;20427;-75
2021/08/25 01:02:44;;;;;;;0.40;0.20;;;14.70;99.90;;;;;;5032423;28;20399;-75
2021/08/25 01:05:10;;;;;;;0.40;0.20;;;14.80;99.90;;;;;;5031512;28;20392;-75
2021/08/25 01:07:41;;;;;;;0.40;0.20;;;14.60;99.90;;;;;;5032481;28;20490;-75
2021/08/25 01:10:31;;;;;;;0.40;0.40;;;14.60;99.90;;;;;;5031867;28;20391;-75
2021/08/25 01:13:01;;;;;;;0.40;0.20;;;14.70;99.90;;;;;;5032733;28;20443;-75
2021/08/25 01:15:31;;;;;;;0.40;0.20;;;14.70;99.90;;;;;;5031758;28;20395;-75
2021/08/25 01:18:02;;;;;;;0.40;0.30;;;14.60;99.90;;;;;;5032341;28;20747;-75
2021/08/25 01:20:29;;;;;;;0.40;0.20;;;14.60;99.90;;;;;;5031684;28;20391;-75
2021/08/25 01:22:59;;;;;;;0.40;0.20;;;14.70;99.90;;;;;;5031360;28;20487;-75
2021/08/25 01:25:26;;;;;;;0.40;0.20;;;14.70;99.90;;;;;;5030319;28;20464;-75
2021/08/25 01:28:03;;;;;;;0.40;0.20;;;14.80;99.90;;;;;;5031987;28;20403;-75
2021/08/25 01:30:33;;;;;;;0.40;0.20;;;14.80;99.90;;;;;;5031697;28;20395;-75
2021/08/25 01:32:59;;;;;;;0.40;0.30;;;14.70;99.90;;;;;;5031965;28;20608;-75
2021/08/25 01:35:37;;;;;;;0.40;0.30;;;14.80;99.90;;;;;;5029612;28;20423;-75
2021/08/25 01:38:05;;;;;;;0.40;0.20;;;14.70;99.90;;;;;;5031012;28;20410;-75
2021/08/25 01:40:35;;;;;;;0.40;0.30;;;14.70;99.90;;;;;;5032543;28;20387;-75
2021/08/25 01:43:02;;;;;;;0.40;0.20;;;14.60;99.90;;;;;;5030899;28;20743;-75
2021/08/25 01:45:27;;;;;;;0.40;0.20;;;14.50;99.90;;;;;;5029621;28;21022;-75
2021/08/25 01:47:53;;;;;;;0.40;0.20;;;14.60;99.90;;;;;;5028854;28;20470;-75
2021/08/25 01:50:20;;;;;;;0.40;0.20;;;14.40;99.90;;;;;;5028131;28;20468;-75
2021/08/25 01:52:45;;;;;;;0.40;0.20;;;14.30;99.90;;;;;;5028478;28;20476;-75
2021/08/25 01:55:11;;;;;;;0.40;0.20;;;14.40;99.90;;;;;;5027943;28;20755;-75
2021/08/25 01:57:36;;;;;;;0.40;0.20;;;14.40;99.90;;;;;;5028622;28;20379;-75
2021/08/25 02:00:04;;;;;;;0.40;0.20;;;14.30;99.90;;;;;;5028925;28;20839;-75
2021/08/25 02:02:30;;;;;;;0.40;0.30;;;14.30;99.90;;;;;;5027725;28;20432;-75
2021/08/25 02:04:56;;;;;;;0.40;0.30;;;14.20;99.90;;;;;;5028671;28;20478;-75
2021/08/25 02:07:21;;;;;;;0.40;0.20;;;14.30;99.90;;;;;;5027283;28;20390;-75
2021/08/25 02:09:47;;;;;;;0.40;0.20;;;14.40;99.90;;;;;;5028120;28;20407;-75
2021/08/25 02:12:13;;;;;;;0.40;0.20;;;14.40;99.90;;;;;;5028163;28;20418;-75
2021/08/25 02:14:38;;;;;;;0.40;0.20;;;14.30;99.90;;;;;;5028729;28;20411;-75
2021/08/25 02:17:06;;;;;;;0.40;0.20;;;14.40;99.90;;;;;;5027623;28;20406;-75
2021/08/25 02:19:32;;;;;;;0.40;0.30;;;14.50;99.90;;;;;;5027928;28;20391;-75
2021/08/25 02:21:58;;;;;;;0.40;0.30;;;14.50;99.90;;;;;;5028159;28;20411;-75
2021/08/25 02:24:24;;;;;;;0.40;0.30;;;14.70;99.90;;;;;;5027991;28;20395;-75
2021/08/25 02:26:49;;;;;;;0.40;0.20;;;14.90;99.90;;;;;;5028529;28;20470;-75
2021/08/25 02:29:15;;;;;;;0.40;0.30;;;14.90;99.90;;;;;;5033146;28;20387;-75
2021/08/25 02:31:41;;;;;;;0.80;0.70;;;14.60;99.90;;;;;;5028887;28;20456;-75
2021/08/25 02:34:06;;;;;;;0.40;0.30;;;14.60;99.90;;;;;;5028328;28;20425;-75
2021/08/25 02:36:32;;;;;;;0.40;0.30;;;14.70;99.90;;;;;;5027875;28;20440;-75
2021/08/25 02:38:57;;;;;;;0.40;0.20;;;14.50;99.90;;;;;;5028149;28;20454;-75
2021/08/25 02:41:23;;;;;;;0.40;0.20;;;14.50;99.90;;;;;;5027748;28;20410;-75
2021/08/25 02:43:49;;;;;;;0.40;0.20;;;14.40;99.90;;;;;;5028393;28;20387;-75
2021/08/25 02:46:16;;;;;;;0.40;0.20;;;14.40;99.90;;;;;;5027560;28;20886;-76
2021/08/25 02:48:41;;;;;;;0.40;0.20;;;14.30;99.90;;;;;;5028237;28;20388;-75
2021/08/25 02:51:08;;;;;;;0.40;0.30;;;14.50;99.90;;;;;;5028055;28;20395;-75
2021/08/25 02:53:33;;;;;;;0.40;0.20;;;14.20;99.90;;;;;;5027049;28;20403;-75
2021/08/25 02:55:59;;;;;;;0.40;0.20;;;14.30;99.90;;;;;;5027413;28;20402;-75
2021/08/25 02:58:25;;;;;;;0.40;0.20;;;14.30;99.90;;;;;;5027368;28;20411;-75
2021/08/25 03:00:50;;;;;;;0.40;0.30;;;14.30;99.90;;;;;;5027448;28;20449;-76
2021/08/25 03:03:16;;;;;;;0.40;0.32;;;14.40;99.90;;;;;;5013676;28;20970;-76
2021/08/25 03:05:41;;;;;;;0.40;0.20;;;14.40;99.90;;;;;;5027239;28;20914;-76
2021/08/25 03:08:07;;;;;;;0.40;0.20;;;14.20;99.90;;;;;;5027064;28;20473;-75
2021/08/25 03:10:33;;;;;;;0.40;0.20;;;14.30;99.90;;;;;;5027032;28;20490;-75
2021/08/25 03:12:59;;;;;;;0.40;0.25;;;14.40;99.90;;;;;;5027676;28;20410;-76
2021/08/25 03:15:25;;;;;;;0.40;0.30;;;14.20;99.90;;;;;;5024886;28;20449;-75
2021/08/25 03:17:50;;;;;;;0.40;0.20;;;14.40;99.90;;;;;;5034460;28;20430;-76
2021/08/25 03:20:16;;;;;;;0.40;0.20;;;14.30;99.90;;;;;;5031058;28;20394;-76
2021/08/25 03:22:42;;;;;;;0.40;0.30;;;14.10;99.90;;;;;;5031392;28;20422;-75
2021/08/25 03:25:09;;;;;;;0.40;0.20;;;14.00;99.90;;;;;;5031484;28;20410;-76
2021/08/25 03:27:36;;;;;;;0.40;0.30;;;13.70;99.90;;;;;;5030934;28;20488;-76
2021/08/25 03:30:03;;;;;;;0.40;0.30;;;13.70;99.90;;;;;;5031657;28;20395;-75
2021/08/25 03:32:29;;;;;;;0.40;0.20;;;13.70;99.90;;;;;;5032921;28;20419;-75
2021/08/25 03:34:54;;;;;;;0.40;0.20;;;13.90;99.90;;;;;;5032267;28;20417;-75
2021/08/25 03:37:20;;;;;;;0.40;0.30;;;14.00;99.90;;;;;;5030726;28;20896;-75
2021/08/25 03:39:46;;;;;;;0.40;0.30;;;14.00;99.90;;;;;;5031875;28;20390;-75
2021/08/25 03:42:11;;;;;;;0.40;0.30;;;14.00;99.90;;;;;;5031464;28;20473;-76
2021/08/25 03:44:38;;;;;;;0.40;0.30;;;13.90;99.90;;;;;;5030910;28;20632;-75
2021/08/25 03:47:08;;;;;;;0.40;0.30;;;14.00;99.90;;;;;;5030387;28;20383;-75
2021/08/25 03:49:34;;;;;;;0.40;0.20;;;13.80;99.90;;;;;;5029978;28;20462;-76
2021/08/25 03:52:00;;;;;;;0.40;0.20;;;14.00;99.90;;;;;;5031467;28;20429;-75
2021/08/25 03:54:29;;;;;;;0.40;0.30;;;13.90;99.90;;;;;;5031389;28;20410;-75
2021/08/25 03:56:55;;;;;;;0.40;0.30;;;13.80;99.90;;;;;;5031391;28;20873;-75
2021/08/25 03:59:21;;;;;;;0.40;0.30;;;13.80;99.90;;;;;;5030234;28;20394;-75
2021/08/25 04:01:48;;;;;;;0.40;0.20;;;13.70;99.90;;;;;;5030747;28;20391;-75
2021/08/25 04:04:13;;;;;;;0.40;0.20;;;13.70;99.90;;;;;;5030604;28;20407;-75
2021/08/25 04:06:39;;;;;;;0.40;0.30;;;13.60;99.90;;;;;;5030469;28;20409;-75
2021/08/25 04:09:05;;;;;;;0.40;0.30;;;13.60;99.90;;;;;;5030922;28;20852;-76
2021/08/25 04:11:32;;;;;;;0.40;0.30;;;13.60;99.90;;;;;;5030427;28;20433;-75
2021/08/25 04:14:00;;;;;;;0.40;0.30;;;13.70;99.90;;;;;;5031087;28;20456;-75
2021/08/25 04:16:26;;;;;;;0.40;0.20;;;13.50;99.90;;;;;;5028347;28;20398;-75
2021/08/25 04:18:51;;;;;;;0.40;0.20;;;13.50;99.90;;;;;;5030996;28;20392;-75
2021/08/25 04:21:17;;;;;;;0.40;0.30;;;13.50;99.90;;;;;;5029604;28;20402;-75
2021/08/25 04:23:43;;;;;;;0.40;0.30;;;13.60;99.90;;;;;;5035153;28;20399;-75
2021/08/25 04:26:09;;;;;;;0.40;0.30;;;13.60;99.90;;;;;;5030637;28;20395;-75
2021/08/25 04:28:35;;;;;;;0.40;0.20;;;13.40;99.90;;;;;;5029169;28;20386;-75
2021/08/25 04:31:00;;;;;;;0.40;0.20;;;13.40;99.90;;;;;;5030205;28;20387;-75
2021/08/25 04:33:26;;;;;;;0.40;0.30;;;13.50;99.90;;;;;;5030501;28;20390;-75
2021/08/25 04:35:52;;;;;;;0.40;0.30;;;13.60;99.90;;;;;;5030150;28;20919;-75
2021/08/25 04:38:17;;;;;;;0.40;0.30;;;13.70;99.90;;;;;;5029289;28;20402;-75
2021/08/25 04:40:43;;;;;;;0.40;0.30;;;13.70;99.90;;;;;;5029788;28;20883;-75
2021/08/25 04:43:09;;;;;;;0.40;0.20;;;13.70;99.90;;;;;;5029769;28;20409;-75
2021/08/25 04:45:37;;;;;;;0.40;0.20;;;13.70;99.90;;;;;;5029469;28;20403;-74
2021/08/25 04:48:03;;;;;;;0.40;0.38;;;13.40;99.90;;;;;;5029899;28;20387;-75
2021/08/25 04:50:29;;;;;;;0.40;0.20;;;13.50;99.90;;;;;;5029999;28;20465;-74
2021/08/25 04:52:54;;;;;;;0.40;0.20;;;13.70;99.90;;;;;;5030742;28;20460;-74
2021/08/25 04:55:20;;;;;;;0.40;0.20;;;13.60;99.90;;;;;;5029653;28;20413;-75
2021/08/25 04:57:46;;;;;;;0.40;0.30;;;13.50;99.90;;;;;;5028998;28;20702;-76
2021/08/25 05:00:12;;;;;;;0.40;0.20;;;13.50;99.90;;;;;;5030509;28;20462;-77
2021/08/25 05:02:37;;;;;;;0.40;0.30;;;13.50;99.90;;;;;;5029670;28;20790;-76
2021/08/25 05:05:03;;;;;;;0.40;0.30;;;13.30;99.90;;;;;;5042187;28;20392;-76
2021/08/25 05:07:29;;;;;;;0.40;0.20;;;13.40;99.90;;;;;;5028537;28;21011;-75
2021/08/25 05:09:55;;;;;;;0.40;0.20;;;13.40;99.90;;;;;;5029848;28;20729;-75
2021/08/25 05:12:20;;;;;;;0.40;0.30;;;13.30;99.90;;;;;;5029532;28;20429;-76
2021/08/25 05:14:46;;;;;;;0.40;0.20;;;13.40;99.90;;;;;;5030414;28;20392;-75
2021/08/25 05:17:12;;;;;;;0.60;0.50;;;13.40;99.90;;;;;;5029993;28;20395;-76
2021/08/25 05:19:37;;;;;;;0.40;0.30;;;13.30;99.90;;;;;;5029207;28;20976;-76
2021/08/25 05:22:03;;;;;;;0.40;0.30;;;13.30;99.90;;;;;;5029703;28;20796;-78
2021/08/25 05:24:29;;;;;;;0.40;0.20;;;13.50;99.90;;;;;;5029838;28;20494;-75
2021/08/25 05:26:55;;;;;;;0.40;0.30;;;13.40;99.90;;;;;;5029996;28;20390;-76
2021/08/25 05:29:20;;;;;;;0.40;0.28;;;13.10;99.90;;;;;;5028920;28;20407;-76
2021/08/25 05:31:46;;;;;;;0.40;0.20;;;13.20;99.90;;;;;;5029749;28;20477;-76
2021/08/25 05:34:12;;;;;;;0.40;0.30;;;13.10;99.90;;;;;;5030637;28;20398;-76
2021/08/25 05:36:39;;;;;;;0.40;0.30;;;13.20;99.90;;;;;;5029471;28;20984;-76
2021/08/25 05:39:04;;;;;;;0.40;0.20;;;13.30;99.90;;;;;;5028975;28;20391;-76
2021/08/25 05:41:30;;;;;;;0.40;0.30;;;13.10;99.90;;;;;;5029482;28;20387;-75
2021/08/25 05:43:56;;;;;;;0.50;0.50;;;13.30;99.90;;;;;;5029897;28;20383;-76
2021/08/25 05:46:21;;;;;;;0.40;0.30;;;13.50;99.90;;;;;;5028993;28;20924;-75
2021/08/25 05:48:47;;;;;;;0.40;0.30;;;13.40;99.90;;;;;;5029696;28;20387;-75
2021/08/25 05:51:15;;;;;;;0.40;0.30;;;13.30;99.90;;;;;;5029601;28;20451;-76
2021/08/25 05:53:41;;;;;;;0.40;0.20;;;13.10;99.90;;;;;;5029027;28;20407;-76
2021/08/25 05:56:07;;;;;;;0.40;0.30;;;13.00;99.90;;;;;;5029081;28;20764;-77
2021/08/25 05:58:32;;;;;;;0.40;0.20;;;12.80;99.90;;;;;;5028854;28;20420;-76
2021/08/25 06:00:58;;;;;;;0.40;0.20;;;12.80;99.90;;;;;;5029652;28;20621;-75
2021/08/25 06:03:23;;;;;;;0.40;0.20;;;12.90;99.90;;;;;;5027844;28;20399;-75
2021/08/25 06:05:53;;;;;;;0.40;0.20;;;13.20;99.90;;;;;;5029153;28;20387;-75
2021/08/25 06:08:19;;;;;;;0.40;0.30;;;13.20;99.90;;;;;;5032575;28;20886;-75
2021/08/25 06:10:45;;;;;;;0.40;0.20;;;13.30;99.90;;;;;;5029460;28;20474;-75
2021/08/25 06:13:10;;;;;;;0.40;0.30;;;13.20;99.90;;;;;;5028772;28;20815;-75
2021/08/25 06:15:36;;;;;;;0.40;0.20;;;13.20;99.90;;;;;;5027630;28;20452;-75
2021/08/25 06:18:02;;;;;;;0.40;0.30;;;13.30;99.90;;;;;;5028098;28;20467;-77
2021/08/25 06:20:28;;;;;;;0.40;0.20;;;13.50;99.90;;;;;;5024766;28;20399;-76
2021/08/25 06:22:54;;;;;;;0.40;0.25;;;13.60;99.90;;;;;;5028284;28;20561;-74
2021/08/25 06:25:19;;;;;;;0.40;0.20;;;13.70;99.90;;;;;;5027734;28;20494;-76
2021/08/25 06:27:45;;;;;;;0.40;0.30;;;13.80;99.90;;;;;;5027433;28;20386;-75
2021/08/25 06:30:12;;;;;;;0.40;0.30;;;13.90;99.90;;;;;;5027920;28;20402;-76
2021/08/25 06:32:38;;;;;;;0.40;0.30;;;14.00;99.90;;;;;;5027860;28;20422;-76
2021/08/25 06:35:04;;;;;;;0.40;0.20;;;14.10;99.90;;;;;;5016468;28;20388;-76
2021/08/25 06:37:31;;;;;;;0.40;0.20;;;14.10;99.90;;;;;;5027288;28;20882;-76
2021/08/25 06:39:56;;;;;;;0.40;0.30;;;14.10;99.90;;;;;;5028303;28;20387;-77
2021/08/25 06:42:22;;;;;;;0.40;0.30;;;14.20;99.90;;;;;;5027748;28;20412;-75
2021/08/25 06:44:48;;;;;;;0.40;0.25;;;14.30;99.90;;;;;;5012839;28;20403;-76
2021/08/25 06:47:14;;;;;;;0.40;0.30;;;14.50;99.90;;;;;;5027170;28;20875;-77
2021/08/25 06:49:40;;;;;;;0.40;0.30;;;14.40;99.90;;;;;;5023469;28;20413;-76
2021/08/25 06:52:05;;;;;;;0.40;0.30;;;14.30;99.90;;;;;;5024688;28;20435;-76
2021/08/25 06:54:31;;;;;;;0.40;0.20;;;14.50;99.90;;;;;;5027030;28;20505;-76
2021/08/25 06:56:57;;;;;;;0.40;0.20;;;14.40;99.90;;;;;;5027313;28;20433;-75
2021/08/25 06:59:22;;;;;;;0.40;0.20;;;14.40;99.90;;;;;;5024706;28;20407;-74
2021/08/25 07:01:48;;;;;;;0.40;0.20;;;14.40;99.90;;;;;;5026453;28;20403;-75
2021/08/25 07:04:14;;;;;;;0.40;0.20;;;14.30;99.90;;;;;;5027028;28;20474;-75
2021/08/25 07:06:39;;;;;;;0.40;0.30;;;14.30;99.90;;;;;;5023943;28;20747;-75
2021/08/25 07:09:05;;;;;;;0.40;0.30;;;14.30;99.90;;;;;;5025663;28;20444;-76
2021/08/25 07:11:31;;;;;;;0.40;0.20;;;14.40;99.90;;;;;;5026739;28;20767;-75
2021/08/25 07:13:56;;;;;;;0.40;0.20;;;14.50;99.90;;;;;;5027421;28;20391;-76
2021/08/25 07:16:22;;;;;;;0.40;0.30;;;14.70;99.90;;;;;;5027357;28;20400;-76
2021/08/25 07:18:48;;;;;;;0.40;0.20;;;14.80;99.90;;;;;;5026704;28;20380;-77
2021/08/25 07:21:14;;;;;;;0.40;0.20;;;14.80;99.90;;;;;;5029780;28;20399;-76
2021/08/25 07:23:40;;;;;;;0.40;0.20;;;15.00;99.90;;;;;;5027075;28;20933;-75
2021/08/25 07:26:05;;;;;;;0.40;0.20;;;15.10;99.90;;;;;;5027056;28;20883;-76
2021/08/25 07:28:31;;;;;;;0.40;0.30;;;15.10;99.90;;;;;;5026747;28;20469;-75
2021/08/25 07:30:57;;;;;;;0.40;0.30;;;15.00;99.90;;;;;;5027715;28;20410;-75
2021/08/25 07:33:23;;;;;;;0.40;0.30;;;15.00;99.90;;;;;;5027729;28;20402;-75
2021/08/25 07:35:49;;;;;;;0.40;0.30;;;15.10;99.90;;;;;;5026922;28;20552;-76
2021/08/25 07:38:17;;;;;;;0.40;0.30;;;15.10;99.90;;;;;;5027738;28;20383;-73
2021/08/25 07:40:44;;;;;;;0.40;0.20;;;15.20;99.90;;;;;;5027271;28;20391;-75
2021/08/25 07:43:10;;;;;;;0.40;0.20;;;15.20;99.90;;;;;;5027740;28;20437;-76
2021/08/25 07:45:59;;;;;;;0.40;0.20;;;15.30;99.90;;;;;;5027524;28;20383;-75
2021/08/25 07:48:26;;;;;;;0.40;0.30;;;15.30;99.90;;;;;;5031863;28;20887;-76
2021/08/25 07:50:52;;;;;;;0.40;0.30;;;15.40;99.90;;;;;;5030614;28;20473;-75
2021/08/25 07:53:18;;;;;;;0.40;0.30;;;15.40;99.90;;;;;;5028239;28;20426;-75
2021/08/25 07:55:44;;;;;;;0.40;0.20;;;15.50;99.90;;;;;;5028159;28;20387;-74
2021/08/25 07:58:10;;;;;;;0.40;0.30;;;15.60;99.90;;;;;;5027302;28;20482;-75
2021/08/25 08:00:35;;;;;;;0.40;0.20;;;15.70;99.90;;;;;;5027459;28;20449;-76
2021/08/25 08:03:01;;;;;;;0.40;0.20;;;15.80;99.90;;;;;;5028650;28;20473;-76
2021/08/25 08:05:27;;;;;;;0.40;0.20;;;15.90;99.90;;;;;;5032682;28;20891;-75
2021/08/25 08:07:52;;;;;;;0.40;0.20;;;15.90;99.90;;;;;;5030131;28;20404;-75
2021/08/25 08:10:18;;;;;;;0.40;0.30;;;16.10;99.90;;;;;;5030806;28;20418;-80
2021/08/25 08:12:44;;;;;;;0.40;0.40;;;16.20;99.90;;;;;;5032066;28;20413;-78
2021/08/25 08:15:12;;;;;;;0.40;0.30;;;16.30;99.90;;;;;;5030847;28;20914;-81
2021/08/25 08:17:44;;;;;;;0.40;0.20;;;16.30;99.90;;;;;;5030965;28;20378;-75
2021/08/25 08:20:11;;;;;;;0.40;0.20;;;16.50;99.90;;;;;;5030974;28;20401;-74
2021/08/25 08:22:37;;;;;;;0.40;0.20;;;16.60;99.90;;;;;;5029789;28;20423;-75
2021/08/25 08:25:03;;;;;;;0.40;0.30;;;16.40;99.90;;;;;;5019374;28;20525;-74
2021/08/25 08:27:29;;;;;;;0.40;0.30;;;16.60;99.90;;;;;;5028787;28;20406;-73
2021/08/25 08:29:54;;;;;;;0.40;0.30;;;16.70;99.90;;;;;;5030613;28;20395;-72
2021/08/25 08:32:20;;;;;;;0.40;0.30;;;16.70;99.90;;;;;;5030737;28;20407;-73
2021/08/25 08:34:46;;;;;;;0.40;0.30;;;16.90;99.90;;;;;;5030146;28;20387;-73
2021/08/25 08:37:11;;;;;;;0.40;0.30;;;17.00;99.90;;;;;;5030246;28;20406;-73
2021/08/25 08:39:37;;;;;;;0.40;0.30;;;17.10;99.90;;;;;;5029116;28;20387;-74
2021/08/25 08:42:04;;;;;;;1.00;0.60;;;17.20;99.90;;;;;;5031751;28;20401;-74
2021/08/25 08:44:30;;;;;;;0.40;0.20;;;17.40;99.90;;;;;;5030839;28;20398;-76
2021/08/25 08:46:56;;;;;;;0.40;0.20;;;17.60;99.90;;;;;;5030335;28;20414;-75
2021/08/25 08:49:22;;;;;;;0.40;0.30;;;17.80;99.90;;;;;;5031688;28;20930;-74
2021/08/25 08:51:51;;;;;;;0.40;0.20;;;17.80;99.90;;;;;;5032578;28;20731;-75
2021/08/25 08:54:18;;;;;;;0.40;0.20;;;18.00;99.90;;;;;;5029478;28;20983;-74
2021/08/25 08:56:44;;;;;;;0.40;0.20;;;17.90;99.90;;;;;;5028268;28;20422;-75
2021/08/25 08:59:10;;;;;;;0.40;0.20;;;18.10;99.90;;;;;;5030107;28;20473;-75
2021/08/25 09:01:36;;;;;;;0.40;0.20;;;18.20;99.90;;;;;;5029218;28;20909;-75
2021/08/25 09:04:02;;;;;;;0.40;0.20;;;18.40;99.90;;;;;;5031771;28;20490;-75
2021/08/25 09:06:45;;;;;;;0.40;0.20;;;18.40;99.90;;;;;;5029795;28;20379;-74
2021/08/25 09:09:11;;;;;;;0.40;0.30;;;18.40;99.90;;;;;;5027171;28;20748;-74
2021/08/25 09:11:54;;;;;;;0.40;0.20;;;18.60;99.90;;;;;;5027979;28;20407;-74
2021/08/25 09:14:24;;;;;;;0.40;0.20;;;18.80;99.90;;;;;;5014107;28;20387;-75
2021/08/25 09:16:50;;;;;;;0.40;0.20;;;18.90;99.90;;;;;;5029344;28;20494;-75
2021/08/25 09:19:18;;;;;;;0.40;0.30;;;18.90;99.90;;;;;;5029149;28;20880;-75
2021/08/25 09:21:52;;;;;;;0.40;0.20;;;19.10;99.90;;;;;;5029224;28;20403;-75
2021/08/25 09:24:23;;;;;;;0.40;0.30;;;19.20;99.90;;;;;;5028039;28;20872;-75
2021/08/25 09:27:05;;;;;;;0.40;0.20;;;19.20;99.90;;;;;;5028734;28;20402;-76
2021/08/25 09:29:30;;;;;;;0.40;0.20;;;19.10;99.90;;;;;;5027768;28;20390;-81
2021/08/25 09:31:56;;;;;;;0.40;0.30;;;19.20;99.90;;;;;;5029330;28;20403;-81
2021/08/25 09:34:33;;;;;;;0.40;0.20;;;19.20;99.90;;;;;;5030287;28;20757;-78
2021/08/25 09:37:10;;;;;;;0.40;0.22;;;19.20;99.90;;;;;;5029012;28;20387;-79
2021/08/25 09:39:47;;;;;;;0.40;0.30;;;19.20;99.90;;;;;;5027938;28;20770;-80
2021/08/25 09:42:16;;;;;;;0.40;0.20;;;19.40;99.90;;;;;;5030081;28;20383;-81
2021/08/25 09:44:43;;;;;;;0.40;0.20;;;19.60;99.90;;;;;;5029024;28;20481;-79
2021/08/25 09:47:09;;;;;;;0.40;0.20;;;19.70;99.90;;;;;;5029921;28;20376;-81
2021/08/25 09:49:35;;;;;;;0.40;0.30;;;19.80;99.90;;;;;;5029419;28;20705;-77
2021/08/25 09:52:01;;;;;;;0.40;0.30;;;19.90;99.80;;;;;;5025420;28;20430;-82
2021/08/25 09:54:26;;;;;;;0.40;0.30;;;20.20;98.40;;;;;;5028880;28;20396;-78
2021/08/25 09:56:54;;;;;;;0.40;0.30;;;20.20;98.10;;;;;;5027962;28;20383;-82
2021/08/25 09:59:20;;;;;;;0.40;0.30;;;20.10;97.70;;;;;;5010920;28;20400;-79
2021/08/25 10:01:48;;;;;;;0.40;0.30;;;20.40;96.60;;;;;;5027978;28;20406;-79
2021/08/25 10:04:14;;;;;;;0.40;0.30;;;20.40;96.20;;;;;;5029182;28;20402;-79
2021/08/25 10:06:42;;;;;;;0.40;0.20;;;20.40;97.50;;;;;;5027222;28;20890;-81
2021/08/25 10:09:10;;;;;;;0.40;0.20;;;20.30;96.50;;;;;;5014199;28;20387;-81
2021/08/25 10:11:45;;;;;;;0.40;0.20;;;20.40;97.40;;;;;;5027949;28;20410;-79
2021/08/25 10:14:12;;;;;;;0.40;0.30;;;20.70;96.30;;;;;;5028801;28;20395;-80
2021/08/25 10:16:50;;;;;;;0.40;0.20;;;21.10;95.70;;;;;;5027620;28;20395;-81
2021/08/25 10:19:25;;;;;;;0.40;0.20;;;21.10;94.20;;;;;;5027002;28;20864;-80
2021/08/25 10:21:53;;;;;;;0.40;0.30;;;21.00;95.20;;;;;;5027680;28;20426;-82
2021/08/25 10:24:19;;;;;;;0.40;0.30;;;21.30;93.00;;;;;;5029030;28;20402;-80
2021/08/25 10:27:02;;;;;;;0.40;0.20;;;21.70;92.90;;;;;;5027604;28;20430;-81
2021/08/25 10:29:29;;;;;;;0.40;0.20;;;21.90;92.20;;;;;;5025656;28;20375;-81
2021/08/25 10:31:56;;;;;;;0.40;0.30;;;21.80;90.00;;;;;;5013124;28;20406;-80
2021/08/25 10:34:30;;;;;;;0.40;0.30;;;21.70;91.20;;;;;;5028790;28;20402;-82
2021/08/25 10:37:11;;;;;;;0.40;0.20;;;21.80;91.90;;;;;;5030585;28;20395;-82
2021/08/25 10:39:38;;;;;;;0.40;0.20;;;22.00;90.50;;;;;;5026404;28;20529;-80
2021/08/25 10:42:05;;;;;;;0.40;0.20;;;22.20;92.20;;;;;;5027824;28;20406;-83
2021/08/25 10:44:49;;;;;;;0.40;0.30;;;22.40;89.40;;;;;;5028940;28;20391;-81
2021/08/25 10:47:17;;;;;;;0.40;0.30;;;22.60;87.30;;;;;;5026557;28;20786;-81
2021/08/25 10:49:48;;;;;;;0.40;0.20;;;22.30;90.40;;;;;;5015405;28;20375;-82
2021/08/25 10:52:13;;;;;;;0.40;0.30;;;22.10;90.20;;;;;;5027864;28;20521;-79
2021/08/25 10:54:43;;;;;;;0.40;0.30;;;22.30;91.40;;;;;;5028425;28;20927;-79
2021/08/25 10:57:10;;;;;;;0.40;0.23;;;22.40;85.10;;;;;;5012323;28;20903;-80
2021/08/25 10:59:36;;;;;;;0.40;0.30;;;22.70;85.70;;;;;;5028190;28;20391;-81
2021/08/25 11:02:02;;;;;;;0.40;0.20;;;22.90;85.80;;;;;;5027522;28;20600;-81
2021/08/25 11:04:31;;;;;;;0.40;0.20;;;22.80;84.80;;;;;;5027662;28;20438;-81
2021/08/25 11:07:10;;;;;;;0.40;0.30;;;22.90;86.80;;;;;;5027496;28;20375;-82
2021/08/25 11:09:47;;;;;;;0.40;0.30;;;23.30;86.90;;;;;;5027898;28;20387;-80
2021/08/25 11:12:14;;;;;;;0.40;0.30;;;23.30;87.10;;;;;;5025774;28;20421;-83
2021/08/25 11:14:47;;;;;;;0.40;0.30;;;22.90;83.10;;;;;;5028843;28;20414;-81
2021/08/25 11:17:23;;;;;;;0.40;0.30;;;23.10;88.20;;;;;;5028294;28;20403;-83
2021/08/25 11:19:51;;;;;;;0.40;0.20;;;23.50;83.50;;;;;;5027065;28;20387;-79
2021/08/25 11:22:31;;;;;;;0.40;0.20;;;23.80;88.10;;;;;;5025662;28;20509;-82
2021/08/25 11:25:12;;;;;;;0.40;0.20;;;24.10;80.70;;;;;;5024092;28;20403;-83
2021/08/25 11:27:46;;;;;;;0.40;0.30;;;24.50;81.70;;;;;;5027727;28;20843;-77
2021/08/25 11:30:19;;;;;;;0.40;0.30;;;24.50;81.70;;;;;;5027881;28;20430;-80
2021/08/25 11:32:49;;;;;;;0.40;0.20;;;24.80;78.40;;;;;;5027890;28;20430;-80
2021/08/25 11:35:22;;;;;;;0.40;0.25;;;24.80;77.20;;;;;;5027641;28;20473;-81
2021/08/25 11:37:48;;;;;;;0.40;0.35;;;24.20;77.30;;;;;;5026991;28;20783;-81
2021/08/25 11:40:14;;;;;;;0.47;0.40;;;24.20;77.90;;;;;;5031956;28;20375;-83
2021/08/25 11:42:40;;;;;;;0.40;0.20;;;24.60;74.30;;;;;;5028026;28;20942;-81
2021/08/25 11:45:17;;;;;;;0.40;0.20;;;24.10;76.30;;;;;;5031399;28;20466;-82
2021/08/25 11:47:48;;;;;;;0.40;0.30;;;24.40;76.40;;;;;;5031462;28;20454;-81
2021/08/25 11:50:14;;;;;;;0.40;0.20;;;25.00;73.20;;;;;;5030803;28;20410;-82
2021/08/25 11:52:41;;;;;;;0.40;0.20;;;25.60;72.20;;;;;;5031472;28;20422;-82
2021/08/25 11:55:07;;;;;;;0.40;0.20;;;25.80;75.80;;;;;;5031080;28;20391;-81
2021/08/25 11:57:59;;;;;;;0.40;0.20;;;25.70;73.10;;;;;;5031778;28;20387;-81
2021/08/25 12:00:51;;;;;;;0.40;0.30;;;25.80;72.90;;;;;;5027294;28;20387;-82
2021/08/25 12:03:17;;;;;;;0.40;0.20;;;25.50;68.80;;;;;;5027667;28;20810;-82
2021/08/25 12:05:53;;;;;;;0.40;0.20;;;25.60;75.30;;;;;;5030946;28;20394;-82
2021/08/25 12:08:20;;;;;;;0.40;0.20;;;25.90;71.70;;;;;;5027193;28;20409;-82
2021/08/25 12:11:06;;;;;;;0.40;0.30;;;26.10;71.90;;;;;;5030649;28;20415;-82
2021/08/25 12:13:36;;;;;;;0.40;0.30;;;25.20;72.80;;;;;;5030950;28;20421;-81
2021/08/25 12:16:04;;;;;;;0.40;0.20;;;25.70;72.10;;;;;;5030807;28;20402;-79
2021/08/25 12:18:44;;;;;;;0.40;0.30;;;25.70;74.90;;;;;;5031257;28;20387;-82
2021/08/25 12:21:10;;;;;;;0.40;0.20;;;26.00;75.10;;;;;;5030065;28;20398;-79
2021/08/25 12:23:36;;;;;;;0.40;0.20;;;25.70;70.80;;;;;;5031031;28;20399;-81
2021/08/25 12:26:01;;;;;;;0.40;0.20;;;25.40;67.40;;;;;;5030426;28;20386;-79
2021/08/25 12:28:34;;;;;;;0.40;0.20;;;25.80;70.40;;;;;;5040141;28;20387;-81
2021/08/25 12:31:15;;;;;;;0.40;0.20;;;26.20;70.80;;;;;;5029947;28;20406;-81
2021/08/25 12:33:45;;;;;;;0.40;0.20;;;25.90;68.20;;;;;;5030677;28;20414;-80
2021/08/25 12:36:19;;;;;;;0.40;0.20;;;25.50;66.20;;;;;;5030052;28;20878;-79
2021/08/25 12:38:45;;;;;;;0.40;0.30;;;25.70;73.20;;;;;;5029081;28;20391;-82
2021/08/25 12:41:11;;;;;;;0.40;0.20;;;25.80;70.80;;;;;;5030406;28;20426;-80
2021/08/25 12:43:36;;;;;;;0.40;0.20;;;26.10;72.60;;;;;;5030544;28;20990;-80
2021/08/25 12:46:03;;;;;;;0.40;0.30;;;26.30;70.90;;;;;;5034925;28;20386;-81
2021/08/25 12:48:28;;;;;;;0.40;0.20;;;26.30;68.40;;;;;;5029677;28;20387;-83
2021/08/25 12:50:54;;;;;;;0.40;0.20;;;26.30;65.80;;;;;;5028660;28;20387;-81